sensor_id;sensor_type;location;lat;lon;timestamp;P1;durP1;ratioP1;P2;durP2;ratioP2
970;SDS011;28939;45.540;-122.632;2022-08-19T00:00:16;8.00;;;7.40;;
970;SDS011;28939;45.540;-122.632;2022-08-19T00:02:47;6.17;;;5.77;;
970;SDS011;28939;45.540;-122.632;2022-08-19T00:05:18;7.07;;;6.57;;
970;SDS011;28939;45.540;-122.632;2022-08-19T00:07:50;7.23;;;6.73;;
970;SDS011;28939;45.540;-122.632;2022-08-19T00:10:23;7.73;;;7.13;;
970;SDS011;28939;45.540;-122.632;2022-08-19T00:12:54;6.93;;;6.40;;
970;SDS011;28939;45.540;-122.632;2022-08-19T00:15:24;8.20;;;7.60;;
970;SDS011;28939;45.540;-122.632;2022-08-19T00:17:55;7.37;;;6.87;;
970;SDS011;28939;45.540;-122.632;2022-08-19T00:20:26;8.90;;;8.10;;
970;SDS011;28939;45.540;-122.632;2022-08-19T00:22:57;7.60;;;7.00;;
970;SDS011;28939;45.540;-122.632;2022-08-19T00:25:29;7.90;;;7.30;;
970;SDS011;28939;45.540;-122.632;2022-08-19T00:28:00;7.40;;;6.90;;
970;SDS011;28939;45.540;-122.632;2022-08-19T00:30:31;7.70;;;7.10;;
970;SDS011;28939;45.540;-122.632;2022-08-19T00:33:01;7.03;;;6.33;;
970;SDS011;28939;45.540;-122.632;2022-08-19T00:35:32;7.80;;;7.10;;
970;SDS011;28939;45.540;-122.632;2022-08-19T00:38:05;8.10;;;7.50;;
970;SDS011;28939;45.540;-122.632;2022-08-19T00:40:37;9.23;;;7.67;;
970;SDS011;28939;45.540;-122.632;2022-08-19T00:43:08;9.07;;;8.40;;
970;SDS011;28939;45.540;-122.632;2022-08-19T00:45:40;8.33;;;7.73;;
970;SDS011;28939;45.540;-122.632;2022-08-19T00:48:11;7.97;;;7.37;;
970;SDS011;28939;45.540;-122.632;2022-08-19T00:50:43;8.57;;;7.67;;
970;SDS011;28939;45.540;-122.632;2022-08-19T00:53:20;7.87;;;7.27;;
970;SDS011;28939;45.540;-122.632;2022-08-19T00:55:56;8.87;;;8.07;;
970;SDS011;28939;45.540;-122.632;2022-08-19T00:58:31;8.43;;;7.80;;
970;SDS011;28939;45.540;-122.632;2022-08-19T01:01:04;9.00;;;8.30;;
970;SDS011;28939;45.540;-122.632;2022-08-19T01:03:37;7.20;;;6.70;;
970;SDS011;28939;45.540;-122.632;2022-08-19T01:06:24;8.57;;;7.87;;
970;SDS011;28939;45.540;-122.632;2022-08-19T01:08:55;8.67;;;7.97;;
970;SDS011;28939;45.540;-122.632;2022-08-19T01:11:28;8.07;;;7.47;;
970;SDS011;28939;45.540;-122.632;2022-08-19T01:14:01;7.77;;;7.07;;
970;SDS011;28939;45.540;-122.632;2022-08-19T01:16:32;8.83;;;7.97;;
970;SDS011;28939;45.540;-122.632;2022-08-19T01:19:07;8.00;;;7.30;;
970;SDS011;28939;45.540;-122.632;2022-08-19T01:21:44;8.20;;;7.40;;
970;SDS011;28939;45.540;-122.632;2022-08-19T01:24:21;8.40;;;7.80;;
970;SDS011;28939;45.540;-122.632;2022-08-19T01:26:51;8.87;;;8.17;;
970;SDS011;28939;45.540;-122.632;2022-08-19T01:29:22;8.27;;;7.60;;
970;SDS011;28939;45.540;-122.632;2022-08-19T01:31:54;8.17;;;7.57;;
970;SDS011;28939;45.540;-122.632;2022-08-19T01:34:24;8.70;;;8.00;;
970;SDS011;28939;45.540;-122.632;2022-08-19T01:36:55;8.60;;;7.90;;
970;SDS011;28939;45.540;-122.632;2022-08-19T01:39:28;9.90;;;9.20;;
970;SDS011;28939;45.540;-122.632;2022-08-19T01:41:58;8.63;;;7.93;;
970;SDS011;28939;45.540;-122.632;2022-08-19T01:44:30;9.10;;;8.40;;
970;SDS011;28939;45.540;-122.632;2022-08-19T01:47:01;8.70;;;8.00;;
970;SDS011;28939;45.540;-122.632;2022-08-19T01:49:33;8.80;;;7.97;;
970;SDS011;28939;45.540;-122.632;2022-08-19T01:52:04;8.97;;;8.17;;
970;SDS011;28939;45.540;-122.632;2022-08-19T01:54:37;8.40;;;7.77;;
970;SDS011;28939;45.540;-122.632;2022-08-19T01:57:09;7.90;;;7.30;;
970;SDS011;28939;45.540;-122.632;2022-08-19T01:59:42;8.67;;;7.97;;
970;SDS011;28939;45.540;-122.632;2022-08-19T02:02:14;8.00;;;7.33;;
970;SDS011;28939;45.540;-122.632;2022-08-19T02:04:45;7.00;;;6.50;;
970;SDS011;28939;45.540;-122.632;2022-08-19T02:07:19;7.03;;;6.43;;
970;SDS011;28939;45.540;-122.632;2022-08-19T02:09:51;7.67;;;6.97;;
970;SDS011;28939;45.540;-122.632;2022-08-19T02:12:22;7.53;;;6.93;;
970;SDS011;28939;45.540;-122.632;2022-08-19T02:14:53;8.00;;;7.40;;
970;SDS011;28939;45.540;-122.632;2022-08-19T02:17:24;9.60;;;8.80;;
970;SDS011;28939;45.540;-122.632;2022-08-19T02:19:56;9.83;;;8.90;;
970;SDS011;28939;45.540;-122.632;2022-08-19T02:22:27;8.13;;;7.43;;
970;SDS011;28939;45.540;-122.632;2022-08-19T02:24:59;8.20;;;7.53;;
970;SDS011;28939;45.540;-122.632;2022-08-19T02:27:32;8.00;;;7.40;;
970;SDS011;28939;45.540;-122.632;2022-08-19T02:30:04;8.60;;;7.90;;
970;SDS011;28939;45.540;-122.632;2022-08-19T02:32:40;8.97;;;8.20;;
970;SDS011;28939;45.540;-122.632;2022-08-19T02:35:11;8.43;;;7.73;;
970;SDS011;28939;45.540;-122.632;2022-08-19T02:37:42;8.63;;;7.93;;
970;SDS011;28939;45.540;-122.632;2022-08-19T02:40:32;8.83;;;7.93;;
970;SDS011;28939;45.540;-122.632;2022-08-19T02:43:03;9.20;;;8.40;;
970;SDS011;28939;45.540;-122.632;2022-08-19T02:45:37;8.80;;;8.07;;
970;SDS011;28939;45.540;-122.632;2022-08-19T02:48:08;8.83;;;8.10;;
970;SDS011;28939;45.540;-122.632;2022-08-19T02:50:48;8.73;;;7.90;;
970;SDS011;28939;45.540;-122.632;2022-08-19T02:53:23;7.97;;;7.27;;
970;SDS011;28939;45.540;-122.632;2022-08-19T02:55:57;9.30;;;8.50;;
970;SDS011;28939;45.540;-122.632;2022-08-19T02:58:28;7.87;;;7.17;;
970;SDS011;28939;45.540;-122.632;2022-08-19T03:00:59;8.00;;;7.30;;
970;SDS011;28939;45.540;-122.632;2022-08-19T03:03:30;8.23;;;7.53;;
970;SDS011;28939;45.540;-122.632;2022-08-19T03:06:08;9.20;;;8.10;;
970;SDS011;28939;45.540;-122.632;2022-08-19T03:08:40;9.50;;;8.60;;
970;SDS011;28939;45.540;-122.632;2022-08-19T03:11:15;9.40;;;8.50;;
970;SDS011;28939;45.540;-122.632;2022-08-19T03:13:47;8.60;;;7.90;;
970;SDS011;28939;45.540;-122.632;2022-08-19T03:16:18;9.27;;;8.47;;
970;SDS011;28939;45.540;-122.632;2022-08-19T03:18:52;8.80;;;8.17;;
970;SDS011;28939;45.540;-122.632;2022-08-19T03:21:28;10.10;;;9.20;;
970;SDS011;28939;45.540;-122.632;2022-08-19T03:24:02;10.90;;;9.90;;
970;SDS011;28939;45.540;-122.632;2022-08-19T03:26:37;11.00;;;9.90;;
970;SDS011;28939;45.540;-122.632;2022-08-19T03:29:09;9.70;;;8.80;;
970;SDS011;28939;45.540;-122.632;2022-08-19T03:31:50;11.20;;;10.30;;
970;SDS011;28939;45.540;-122.632;2022-08-19T03:34:22;10.80;;;10.00;;
970;SDS011;28939;45.540;-122.632;2022-08-19T03:36:55;10.13;;;9.10;;
970;SDS011;28939;45.540;-122.632;2022-08-19T03:39:27;9.60;;;8.67;;
970;SDS011;28939;45.540;-122.632;2022-08-19T03:42:00;10.40;;;8.80;;
970;SDS011;28939;45.540;-122.632;2022-08-19T03:44:51;9.77;;;8.97;;
970;SDS011;28939;45.540;-122.632;2022-08-19T03:47:22;9.97;;;9.17;;
970;SDS011;28939;45.540;-122.632;2022-08-19T03:49:53;10.07;;;9.27;;
970;SDS011;28939;45.540;-122.632;2022-08-19T03:52:23;10.77;;;9.97;;
970;SDS011;28939;45.540;-122.632;2022-08-19T03:54:54;10.07;;;9.27;;
970;SDS011;28939;45.540;-122.632;2022-08-19T03:57:27;9.00;;;8.30;;
970;SDS011;28939;45.540;-122.632;2022-08-19T03:59:58;10.20;;;9.40;;
970;SDS011;28939;45.540;-122.632;2022-08-19T04:02:39;10.60;;;9.80;;
970;SDS011;28939;45.540;-122.632;2022-08-19T04:05:26;10.10;;;9.40;;
970;SDS011;28939;45.540;-122.632;2022-08-19T04:07:57;10.47;;;9.47;;
970;SDS011;28939;45.540;-122.632;2022-08-19T04:10:28;9.43;;;8.53;;
970;SDS011;28939;45.540;-122.632;2022-08-19T04:13:00;9.10;;;8.30;;
970;SDS011;28939;45.540;-122.632;2022-08-19T04:15:31;8.90;;;8.20;;
970;SDS011;28939;45.540;-122.632;2022-08-19T04:18:07;9.87;;;8.97;;
970;SDS011;28939;45.540;-122.632;2022-08-19T04:20:39;10.00;;;9.20;;
970;SDS011;28939;45.540;-122.632;2022-08-19T04:23:13;10.03;;;9.03;;
970;SDS011;28939;45.540;-122.632;2022-08-19T04:25:45;10.03;;;9.23;;
970;SDS011;28939;45.540;-122.632;2022-08-19T04:28:17;8.90;;;8.20;;
970;SDS011;28939;45.540;-122.632;2022-08-19T04:30:48;9.70;;;8.90;;
970;SDS011;28939;45.540;-122.632;2022-08-19T04:33:21;10.40;;;9.50;;
970;SDS011;28939;45.540;-122.632;2022-08-19T04:35:54;10.70;;;9.80;;
970;SDS011;28939;45.540;-122.632;2022-08-19T04:38:25;10.03;;;9.20;;
970;SDS011;28939;45.540;-122.632;2022-08-19T04:40:56;10.80;;;9.83;;
970;SDS011;28939;45.540;-122.632;2022-08-19T04:43:46;10.97;;;10.07;;
970;SDS011;28939;45.540;-122.632;2022-08-19T04:46:17;10.97;;;10.00;;
970;SDS011;28939;45.540;-122.632;2022-08-19T04:49:06;9.63;;;8.83;;
970;SDS011;28939;45.540;-122.632;2022-08-19T04:51:40;10.20;;;9.20;;
970;SDS011;28939;45.540;-122.632;2022-08-19T04:54:12;11.23;;;9.30;;
970;SDS011;28939;45.540;-122.632;2022-08-19T04:57:03;9.67;;;8.87;;
970;SDS011;28939;45.540;-122.632;2022-08-19T04:59:36;11.47;;;10.20;;
970;SDS011;28939;45.540;-122.632;2022-08-19T05:02:08;10.57;;;9.67;;
970;SDS011;28939;45.540;-122.632;2022-08-19T05:04:39;11.93;;;10.80;;
970;SDS011;28939;45.540;-122.632;2022-08-19T05:07:10;11.40;;;10.50;;
970;SDS011;28939;45.540;-122.632;2022-08-19T05:09:41;11.30;;;10.20;;
970;SDS011;28939;45.540;-122.632;2022-08-19T05:12:24;11.50;;;10.60;;
970;SDS011;28939;45.540;-122.632;2022-08-19T05:14:58;11.50;;;10.50;;
970;SDS011;28939;45.540;-122.632;2022-08-19T05:17:28;10.50;;;9.60;;
970;SDS011;28939;45.540;-122.632;2022-08-19T05:20:04;11.00;;;10.10;;
970;SDS011;28939;45.540;-122.632;2022-08-19T05:22:53;12.23;;;11.13;;
970;SDS011;28939;45.540;-122.632;2022-08-19T05:25:24;10.50;;;9.50;;
970;SDS011;28939;45.540;-122.632;2022-08-19T05:27:55;11.73;;;10.73;;
970;SDS011;28939;45.540;-122.632;2022-08-19T05:30:27;11.90;;;10.90;;
970;SDS011;28939;45.540;-122.632;2022-08-19T05:33:13;10.53;;;9.73;;
970;SDS011;28939;45.540;-122.632;2022-08-19T05:35:43;10.53;;;9.70;;
970;SDS011;28939;45.540;-122.632;2022-08-19T05:38:15;11.40;;;10.43;;
970;SDS011;28939;45.540;-122.632;2022-08-19T05:40:47;10.80;;;9.93;;
970;SDS011;28939;45.540;-122.632;2022-08-19T05:43:18;11.10;;;10.00;;
970;SDS011;28939;45.540;-122.632;2022-08-19T05:45:50;12.30;;;11.20;;
970;SDS011;28939;45.540;-122.632;2022-08-19T05:48:21;11.67;;;10.77;;
970;SDS011;28939;45.540;-122.632;2022-08-19T05:50:52;11.90;;;10.73;;
970;SDS011;28939;45.540;-122.632;2022-08-19T05:53:23;11.53;;;10.63;;
970;SDS011;28939;45.540;-122.632;2022-08-19T05:55:53;11.23;;;10.13;;
970;SDS011;28939;45.540;-122.632;2022-08-19T05:58:24;11.50;;;10.60;;
970;SDS011;28939;45.540;-122.632;2022-08-19T06:00:57;12.30;;;10.50;;
970;SDS011;28939;45.540;-122.632;2022-08-19T06:03:31;10.00;;;9.20;;
970;SDS011;28939;45.540;-122.632;2022-08-19T06:06:04;11.83;;;10.07;;
970;SDS011;28939;45.540;-122.632;2022-08-19T06:08:35;10.77;;;9.87;;
970;SDS011;28939;45.540;-122.632;2022-08-19T06:11:13;11.90;;;10.77;;
970;SDS011;28939;45.540;-122.632;2022-08-19T06:13:45;10.67;;;9.90;;
970;SDS011;28939;45.540;-122.632;2022-08-19T06:16:27;9.83;;;9.00;;
970;SDS011;28939;45.540;-122.632;2022-08-19T06:19:02;10.17;;;9.37;;
970;SDS011;28939;45.540;-122.632;2022-08-19T06:21:35;11.00;;;10.10;;
970;SDS011;28939;45.540;-122.632;2022-08-19T06:24:09;10.40;;;9.60;;
970;SDS011;28939;45.540;-122.632;2022-08-19T06:26:44;11.10;;;10.20;;
970;SDS011;28939;45.540;-122.632;2022-08-19T06:29:19;11.60;;;10.60;;
970;SDS011;28939;45.540;-122.632;2022-08-19T06:31:54;10.27;;;9.47;;
970;SDS011;28939;45.540;-122.632;2022-08-19T06:34:26;10.33;;;9.53;;
970;SDS011;28939;45.540;-122.632;2022-08-19T06:36:59;12.07;;;11.07;;
970;SDS011;28939;45.540;-122.632;2022-08-19T06:39:36;11.97;;;10.77;;
970;SDS011;28939;45.540;-122.632;2022-08-19T06:42:08;12.47;;;11.27;;
970;SDS011;28939;45.540;-122.632;2022-08-19T06:44:44;11.30;;;10.30;;
970;SDS011;28939;45.540;-122.632;2022-08-19T06:47:21;10.83;;;9.83;;
970;SDS011;28939;45.540;-122.632;2022-08-19T06:49:55;11.37;;;10.23;;
970;SDS011;28939;45.540;-122.632;2022-08-19T06:52:31;11.30;;;10.30;;
970;SDS011;28939;45.540;-122.632;2022-08-19T06:55:04;10.67;;;9.77;;
970;SDS011;28939;45.540;-122.632;2022-08-19T06:57:35;11.50;;;10.50;;
970;SDS011;28939;45.540;-122.632;2022-08-19T07:00:06;11.20;;;10.30;;
970;SDS011;28939;45.540;-122.632;2022-08-19T07:02:42;10.57;;;9.77;;
970;SDS011;28939;45.540;-122.632;2022-08-19T07:05:23;11.20;;;10.20;;
970;SDS011;28939;45.540;-122.632;2022-08-19T07:07:53;11.03;;;10.13;;
970;SDS011;28939;45.540;-122.632;2022-08-19T07:10:30;10.97;;;9.97;;
970;SDS011;28939;45.540;-122.632;2022-08-19T07:13:02;11.17;;;10.20;;
970;SDS011;28939;45.540;-122.632;2022-08-19T07:15:33;10.50;;;8.90;;
970;SDS011;28939;45.540;-122.632;2022-08-19T07:18:07;10.60;;;9.60;;
970;SDS011;28939;45.540;-122.632;2022-08-19T07:20:38;11.53;;;10.53;;
970;SDS011;28939;45.540;-122.632;2022-08-19T07:23:10;11.50;;;10.40;;
970;SDS011;28939;45.540;-122.632;2022-08-19T07:25:42;11.10;;;10.20;;
970;SDS011;28939;45.540;-122.632;2022-08-19T07:28:19;12.63;;;11.47;;
970;SDS011;28939;45.540;-122.632;2022-08-19T07:30:53;10.00;;;9.20;;
970;SDS011;28939;45.540;-122.632;2022-08-19T07:33:25;11.40;;;10.40;;
970;SDS011;28939;45.540;-122.632;2022-08-19T07:36:00;11.00;;;10.00;;
970;SDS011;28939;45.540;-122.632;2022-08-19T07:38:31;10.77;;;9.87;;
970;SDS011;28939;45.540;-122.632;2022-08-19T07:41:02;11.93;;;10.97;;
970;SDS011;28939;45.540;-122.632;2022-08-19T07:43:33;10.90;;;9.90;;
970;SDS011;28939;45.540;-122.632;2022-08-19T07:46:04;11.13;;;10.03;;
970;SDS011;28939;45.540;-122.632;2022-08-19T07:48:38;10.97;;;10.17;;
970;SDS011;28939;45.540;-122.632;2022-08-19T07:51:10;11.80;;;10.63;;
970;SDS011;28939;45.540;-122.632;2022-08-19T07:54:03;11.97;;;11.00;;
970;SDS011;28939;45.540;-122.632;2022-08-19T07:56:34;10.70;;;9.80;;
970;SDS011;28939;45.540;-122.632;2022-08-19T07:59:04;11.40;;;10.40;;
970;SDS011;28939;45.540;-122.632;2022-08-19T08:01:36;11.67;;;10.67;;
970;SDS011;28939;45.540;-122.632;2022-08-19T08:04:10;11.37;;;10.47;;
970;SDS011;28939;45.540;-122.632;2022-08-19T08:06:57;11.23;;;10.37;;
970;SDS011;28939;45.540;-122.632;2022-08-19T08:09:45;11.37;;;10.40;;
970;SDS011;28939;45.540;-122.632;2022-08-19T08:12:17;11.73;;;10.73;;
970;SDS011;28939;45.540;-122.632;2022-08-19T08:15:01;12.00;;;11.10;;
970;SDS011;28939;45.540;-122.632;2022-08-19T08:17:38;11.37;;;10.47;;
970;SDS011;28939;45.540;-122.632;2022-08-19T08:20:19;11.40;;;10.50;;
970;SDS011;28939;45.540;-122.632;2022-08-19T08:22:50;10.50;;;9.70;;
970;SDS011;28939;45.540;-122.632;2022-08-19T08:25:37;11.03;;;10.07;;
970;SDS011;28939;45.540;-122.632;2022-08-19T08:28:09;11.20;;;10.30;;
970;SDS011;28939;45.540;-122.632;2022-08-19T08:30:43;10.13;;;9.27;;
970;SDS011;28939;45.540;-122.632;2022-08-19T08:33:17;10.67;;;9.77;;
970;SDS011;28939;45.540;-122.632;2022-08-19T08:36:03;12.27;;;11.27;;
970;SDS011;28939;45.540;-122.632;2022-08-19T08:38:35;11.10;;;10.10;;
970;SDS011;28939;45.540;-122.632;2022-08-19T08:41:10;11.30;;;10.30;;
970;SDS011;28939;45.540;-122.632;2022-08-19T08:43:49;10.67;;;9.83;;
970;SDS011;28939;45.540;-122.632;2022-08-19T08:46:23;9.27;;;8.40;;
970;SDS011;28939;45.540;-122.632;2022-08-19T08:49:01;12.10;;;11.00;;
970;SDS011;28939;45.540;-122.632;2022-08-19T08:51:40;11.50;;;10.47;;
970;SDS011;28939;45.540;-122.632;2022-08-19T08:54:27;11.10;;;10.00;;
970;SDS011;28939;45.540;-122.632;2022-08-19T08:57:03;10.60;;;9.67;;
970;SDS011;28939;45.540;-122.632;2022-08-19T08:59:40;12.13;;;11.07;;
970;SDS011;28939;45.540;-122.632;2022-08-19T09:02:12;9.60;;;8.83;;
970;SDS011;28939;45.540;-122.632;2022-08-19T09:04:43;10.20;;;9.40;;
970;SDS011;28939;45.540;-122.632;2022-08-19T09:07:22;11.43;;;10.43;;
970;SDS011;28939;45.540;-122.632;2022-08-19T09:10:04;11.43;;;10.33;;
970;SDS011;28939;45.540;-122.632;2022-08-19T09:12:42;11.57;;;10.60;;
970;SDS011;28939;45.540;-122.632;2022-08-19T09:15:25;11.60;;;10.50;;
970;SDS011;28939;45.540;-122.632;2022-08-19T09:18:02;11.00;;;10.10;;
970;SDS011;28939;45.540;-122.632;2022-08-19T09:20:41;12.30;;;11.10;;
970;SDS011;28939;45.540;-122.632;2022-08-19T09:23:13;12.07;;;10.97;;
970;SDS011;28939;45.540;-122.632;2022-08-19T09:25:52;11.60;;;10.60;;
970;SDS011;28939;45.540;-122.632;2022-08-19T09:28:24;10.67;;;9.67;;
970;SDS011;28939;45.540;-122.632;2022-08-19T09:30:58;9.67;;;8.77;;
970;SDS011;28939;45.540;-122.632;2022-08-19T09:33:28;8.87;;;8.17;;
970;SDS011;28939;45.540;-122.632;2022-08-19T09:36:04;10.47;;;9.53;;
970;SDS011;28939;45.540;-122.632;2022-08-19T09:38:37;8.73;;;8.13;;
970;SDS011;28939;45.540;-122.632;2022-08-19T09:41:10;7.67;;;6.97;;
970;SDS011;28939;45.540;-122.632;2022-08-19T09:43:44;7.90;;;7.17;;
970;SDS011;28939;45.540;-122.632;2022-08-19T09:46:19;6.90;;;6.30;;
970;SDS011;28939;45.540;-122.632;2022-08-19T09:48:51;6.03;;;5.50;;
970;SDS011;28939;45.540;-122.632;2022-08-19T09:51:31;6.33;;;5.80;;
970;SDS011;28939;45.540;-122.632;2022-08-19T09:54:04;5.33;;;4.90;;
970;SDS011;28939;45.540;-122.632;2022-08-19T09:56:37;5.53;;;5.03;;
970;SDS011;28939;45.540;-122.632;2022-08-19T09:59:08;5.67;;;5.17;;
970;SDS011;28939;45.540;-122.632;2022-08-19T10:01:39;5.63;;;5.13;;
970;SDS011;28939;45.540;-122.632;2022-08-19T10:04:11;4.97;;;4.63;;
970;SDS011;28939;45.540;-122.632;2022-08-19T10:06:48;3.83;;;3.50;;
970;SDS011;28939;45.540;-122.632;2022-08-19T10:09:22;6.00;;;4.20;;
970;SDS011;28939;45.540;-122.632;2022-08-19T10:12:00;4.73;;;4.20;;
970;SDS011;28939;45.540;-122.632;2022-08-19T10:14:37;5.10;;;4.70;;
970;SDS011;28939;45.540;-122.632;2022-08-19T10:17:08;4.37;;;4.03;;
970;SDS011;28939;45.540;-122.632;2022-08-19T10:19:47;3.07;;;2.63;;
970;SDS011;28939;45.540;-122.632;2022-08-19T10:22:21;3.43;;;3.13;;
970;SDS011;28939;45.540;-122.632;2022-08-19T10:24:54;3.63;;;2.60;;
970;SDS011;28939;45.540;-122.632;2022-08-19T10:27:25;3.50;;;3.20;;
970;SDS011;28939;45.540;-122.632;2022-08-19T10:29:58;3.30;;;3.00;;
970;SDS011;28939;45.540;-122.632;2022-08-19T10:32:28;2.80;;;2.50;;
970;SDS011;28939;45.540;-122.632;2022-08-19T10:35:00;4.10;;;2.90;;
970;SDS011;28939;45.540;-122.632;2022-08-19T10:37:33;3.00;;;2.80;;
970;SDS011;28939;45.540;-122.632;2022-08-19T10:40:24;2.83;;;2.63;;
970;SDS011;28939;45.540;-122.632;2022-08-19T10:42:56;3.03;;;2.80;;
970;SDS011;28939;45.540;-122.632;2022-08-19T10:45:26;3.50;;;3.20;;
970;SDS011;28939;45.540;-122.632;2022-08-19T10:47:58;3.40;;;2.70;;
970;SDS011;28939;45.540;-122.632;2022-08-19T10:50:29;2.97;;;2.63;;
970;SDS011;28939;45.540;-122.632;2022-08-19T10:53:17;2.90;;;2.53;;
970;SDS011;28939;45.540;-122.632;2022-08-19T10:55:55;2.63;;;2.43;;
970;SDS011;28939;45.540;-122.632;2022-08-19T10:58:42;3.37;;;3.07;;
970;SDS011;28939;45.540;-122.632;2022-08-19T11:01:13;3.10;;;2.70;;
970;SDS011;28939;45.540;-122.632;2022-08-19T11:03:44;3.27;;;2.97;;
970;SDS011;28939;45.540;-122.632;2022-08-19T11:06:15;2.83;;;2.50;;
970;SDS011;28939;45.540;-122.632;2022-08-19T11:08:46;2.70;;;2.50;;
970;SDS011;28939;45.540;-122.632;2022-08-19T11:11:18;2.70;;;2.50;;
970;SDS011;28939;45.540;-122.632;2022-08-19T11:13:50;2.80;;;2.10;;
970;SDS011;28939;45.540;-122.632;2022-08-19T11:16:21;2.20;;;2.00;;
970;SDS011;28939;45.540;-122.632;2022-08-19T11:18:54;2.47;;;2.20;;
970;SDS011;28939;45.540;-122.632;2022-08-19T11:21:27;5.83;;;2.13;;
970;SDS011;28939;45.540;-122.632;2022-08-19T11:24:00;2.23;;;2.00;;
970;SDS011;28939;45.540;-122.632;2022-08-19T11:26:35;2.30;;;2.10;;
970;SDS011;28939;45.540;-122.632;2022-08-19T11:29:06;2.47;;;2.27;;
970;SDS011;28939;45.540;-122.632;2022-08-19T11:31:41;2.07;;;1.87;;
970;SDS011;28939;45.540;-122.632;2022-08-19T11:34:13;2.40;;;2.00;;
970;SDS011;28939;45.540;-122.632;2022-08-19T11:36:47;2.10;;;1.90;;
970;SDS011;28939;45.540;-122.632;2022-08-19T11:39:19;1.80;;;1.70;;
970;SDS011;28939;45.540;-122.632;2022-08-19T11:41:53;2.10;;;1.93;;
970;SDS011;28939;45.540;-122.632;2022-08-19T11:44:24;1.97;;;1.80;;
970;SDS011;28939;45.540;-122.632;2022-08-19T11:47:02;1.77;;;1.67;;
970;SDS011;28939;45.540;-122.632;2022-08-19T11:49:35;2.00;;;1.80;;
970;SDS011;28939;45.540;-122.632;2022-08-19T11:52:05;1.90;;;1.57;;
970;SDS011;28939;45.540;-122.632;2022-08-19T11:54:36;1.60;;;1.50;;
970;SDS011;28939;45.540;-122.632;2022-08-19T11:57:09;1.80;;;1.70;;
970;SDS011;28939;45.540;-122.632;2022-08-19T11:59:39;1.30;;;1.20;;
970;SDS011;28939;45.540;-122.632;2022-08-19T12:02:10;1.20;;;1.10;;
970;SDS011;28939;45.540;-122.632;2022-08-19T12:04:41;1.90;;;1.80;;
970;SDS011;28939;45.540;-122.632;2022-08-19T12:07:12;3.97;;;1.57;;
970;SDS011;28939;45.540;-122.632;2022-08-19T12:09:42;1.90;;;1.57;;
970;SDS011;28939;45.540;-122.632;2022-08-19T12:12:16;1.47;;;1.30;;
970;SDS011;28939;45.540;-122.632;2022-08-19T12:14:47;1.30;;;1.20;;
970;SDS011;28939;45.540;-122.632;2022-08-19T12:17:26;2.13;;;1.40;;
970;SDS011;28939;45.540;-122.632;2022-08-19T12:19:58;1.27;;;1.17;;
970;SDS011;28939;45.540;-122.632;2022-08-19T12:22:29;1.40;;;1.30;;
970;SDS011;28939;45.540;-122.632;2022-08-19T12:25:00;1.50;;;1.33;;
970;SDS011;28939;45.540;-122.632;2022-08-19T12:27:32;1.27;;;1.17;;
970;SDS011;28939;45.540;-122.632;2022-08-19T12:30:09;1.00;;;0.90;;
970;SDS011;28939;45.540;-122.632;2022-08-19T12:32:41;1.00;;;0.90;;
970;SDS011;28939;45.540;-122.632;2022-08-19T12:35:11;1.20;;;1.10;;
970;SDS011;28939;45.540;-122.632;2022-08-19T12:37:42;1.67;;;1.40;;
970;SDS011;28939;45.540;-122.632;2022-08-19T12:40:23;1.10;;;1.07;;
970;SDS011;28939;45.540;-122.632;2022-08-19T12:42:55;1.10;;;1.00;;
970;SDS011;28939;45.540;-122.632;2022-08-19T12:45:26;1.30;;;1.20;;
970;SDS011;28939;45.540;-122.632;2022-08-19T12:47:57;1.53;;;1.10;;
970;SDS011;28939;45.540;-122.632;2022-08-19T12:50:48;1.00;;;0.90;;
970;SDS011;28939;45.540;-122.632;2022-08-19T12:53:19;0.93;;;0.93;;
970;SDS011;28939;45.540;-122.632;2022-08-19T12:55:54;0.80;;;0.80;;
970;SDS011;28939;45.540;-122.632;2022-08-19T12:58:27;0.87;;;0.70;;
970;SDS011;28939;45.540;-122.632;2022-08-19T13:00:58;1.30;;;0.93;;
970;SDS011;28939;45.540;-122.632;2022-08-19T13:03:29;1.20;;;1.10;;
970;SDS011;28939;45.540;-122.632;2022-08-19T13:06:06;0.73;;;0.73;;
970;SDS011;28939;45.540;-122.632;2022-08-19T13:08:37;0.80;;;0.80;;
970;SDS011;28939;45.540;-122.632;2022-08-19T13:11:13;0.70;;;0.70;;
970;SDS011;28939;45.540;-122.632;2022-08-19T13:13:47;0.77;;;0.70;;
970;SDS011;28939;45.540;-122.632;2022-08-19T13:16:21;0.80;;;0.80;;
970;SDS011;28939;45.540;-122.632;2022-08-19T13:18:51;0.93;;;0.90;;
970;SDS011;28939;45.540;-122.632;2022-08-19T13:21:25;0.70;;;0.70;;
970;SDS011;28939;45.540;-122.632;2022-08-19T13:23:57;1.00;;;0.90;;
970;SDS011;28939;45.540;-122.632;2022-08-19T13:26:28;0.40;;;0.37;;
970;SDS011;28939;45.540;-122.632;2022-08-19T13:29:01;0.93;;;0.90;;
970;SDS011;28939;45.540;-122.632;2022-08-19T13:31:48;0.90;;;0.70;;
970;SDS011;28939;45.540;-122.632;2022-08-19T13:34:43;0.73;;;0.70;;
970;SDS011;28939;45.540;-122.632;2022-08-19T13:37:14;0.70;;;0.70;;
970;SDS011;28939;45.540;-122.632;2022-08-19T13:40:05;0.70;;;0.53;;
970;SDS011;28939;45.540;-122.632;2022-08-19T13:42:42;0.97;;;0.87;;
970;SDS011;28939;45.540;-122.632;2022-08-19T13:45:17;0.70;;;0.70;;
970;SDS011;28939;45.540;-122.632;2022-08-19T13:47:50;0.60;;;0.60;;
970;SDS011;28939;45.540;-122.632;2022-08-19T13:50:26;1.00;;;0.90;;
970;SDS011;28939;45.540;-122.632;2022-08-19T13:52:59;0.80;;;0.80;;
970;SDS011;28939;45.540;-122.632;2022-08-19T13:55:31;0.80;;;0.80;;
970;SDS011;28939;45.540;-122.632;2022-08-19T13:58:03;1.10;;;0.80;;
970;SDS011;28939;45.540;-122.632;2022-08-19T14:00:36;1.03;;;0.73;;
970;SDS011;28939;45.540;-122.632;2022-08-19T14:03:08;0.80;;;0.53;;
970;SDS011;28939;45.540;-122.632;2022-08-19T14:05:39;1.30;;;0.70;;
970;SDS011;28939;45.540;-122.632;2022-08-19T14:08:10;0.60;;;0.60;;
970;SDS011;28939;45.540;-122.632;2022-08-19T14:10:41;1.00;;;0.90;;
970;SDS011;28939;45.540;-122.632;2022-08-19T14:13:13;0.40;;;0.40;;
970;SDS011;28939;45.540;-122.632;2022-08-19T14:15:47;0.63;;;0.63;;
970;SDS011;28939;45.540;-122.632;2022-08-19T14:18:19;1.00;;;0.80;;
970;SDS011;28939;45.540;-122.632;2022-08-19T14:20:54;0.80;;;0.80;;
970;SDS011;28939;45.540;-122.632;2022-08-19T14:23:25;0.57;;;0.57;;
970;SDS011;28939;45.540;-122.632;2022-08-19T14:26:02;0.60;;;0.60;;
970;SDS011;28939;45.540;-122.632;2022-08-19T14:28:34;1.47;;;0.80;;
970;SDS011;28939;45.540;-122.632;2022-08-19T14:31:07;0.80;;;0.80;;
970;SDS011;28939;45.540;-122.632;2022-08-19T14:33:37;0.53;;;0.53;;
970;SDS011;28939;45.540;-122.632;2022-08-19T14:36:08;0.80;;;0.80;;
970;SDS011;28939;45.540;-122.632;2022-08-19T14:38:41;0.70;;;0.70;;
970;SDS011;28939;45.540;-122.632;2022-08-19T14:41:13;0.80;;;0.80;;
970;SDS011;28939;45.540;-122.632;2022-08-19T14:43:47;0.93;;;0.83;;
970;SDS011;28939;45.540;-122.632;2022-08-19T14:46:21;0.50;;;0.50;;
970;SDS011;28939;45.540;-122.632;2022-08-19T14:48:55;0.70;;;0.70;;
970;SDS011;28939;45.540;-122.632;2022-08-19T14:51:26;0.83;;;0.83;;
970;SDS011;28939;45.540;-122.632;2022-08-19T14:53:57;0.80;;;0.80;;
970;SDS011;28939;45.540;-122.632;2022-08-19T14:56:28;0.80;;;0.80;;
970;SDS011;28939;45.540;-122.632;2022-08-19T14:58:59;0.70;;;0.70;;
970;SDS011;28939;45.540;-122.632;2022-08-19T15:01:32;0.93;;;0.93;;
970;SDS011;28939;45.540;-122.632;2022-08-19T15:04:03;0.60;;;0.60;;